Accueil
METAR-TAF:

METAR-TAF

Aéroports :

Aérodrome d'Arvidsjaur

Arvidsjaur, Suède

latitude: 65-35-25N, longitude: 019-16-55E, altitude: 379 m

Observation

Le bulletin a été fait il y a 40 minutes, à 17:50 UTC
Vent 11 kt de sud/sud-ouest
Température 8°C
Humidité 76%
Pression 976 hPa
Visibilité 10 km ou plus

METAR: ESNX 221750Z AUTO 20011KT 9999 FEW026/// SCT088/// 08/04 Q0976

Heure: 20:30 (18:30 UTC)

Prévision

Le bulletin a été fait il y a 23 heures et 9 minutes, à 19:21 UTC
Prévision valable du 21 à 19 UTC au 21 à 20 UTC
Vent 8 kt de est/sud-est
Visibilité: 5000 m
Nuages épars à une hauteur de 300 ft
Nuages fragmentés à une hauteur de 1000 ft
pluie faible, bruine
Temporairement
du 21 à 19 UTC au 21 à 20 UTC
Visibilité: 1400 m
Nuages fragmentés à une hauteur de 300 ft
bruine

TAF: ESNX 211921Z 2119/2120 11008KT 5000 -RADZ SCT003 BKN010 TEMPO 2119/2120 1400 DZ BKN003

Observations et prévisions météorologiques de plus de 4000 aéroports (messages METAR et TAF).

Les stations disponibles sont représentées par des disques jaunes et rouges sur la carte.

Passer la souris dessus pour voir le nom de la station.

Cliquer dessus pour voir les observations et prévisions météorologiques.

Pour changer de carte: cliquez sur les boutons verts avec une croix noire pour zoomer, sur le bouton vert avec un tiret pour effectuer un zoom arrière, ou sur les flèches vertes pour les cartes adjacentes.


METAR-TAF: